createdAt,value
2022-10-12T00:00:04.162Z,12.94
2022-10-12T00:01:04.457Z,13.01
2022-10-12T00:02:05.653Z,12.98
2022-10-12T00:03:05.014Z,13.03
2022-10-12T00:04:07.198Z,13.00
2022-10-12T00:05:05.626Z,12.97
2022-10-12T00:06:05.896Z,12.94
2022-10-12T00:07:07.177Z,12.93
2022-10-12T00:08:06.538Z,12.91
2022-10-12T00:09:08.730Z,12.87
2022-10-12T00:10:07.137Z,12.79
2022-10-12T00:11:07.442Z,12.80
2022-10-12T00:12:08.743Z,12.78
2022-10-12T00:13:07.971Z,12.78
2022-10-12T00:14:08.286Z,12.79
2022-10-12T00:15:10.485Z,12.80
2022-10-12T00:16:09.830Z,12.86
2022-10-12T00:17:10.311Z,12.86
2022-10-12T00:18:10.218Z,12.93
2022-10-12T00:19:10.631Z,12.97
2022-10-12T00:20:10.069Z,13.00
2022-10-12T00:21:10.240Z,12.98
2022-10-12T00:22:11.366Z,12.94
2022-10-12T00:23:12.735Z,12.85
2022-10-12T00:24:11.107Z,12.83
2022-10-12T00:25:14.372Z,12.85
2022-10-12T00:26:13.516Z,12.83
2022-10-12T00:27:12.933Z,12.87
2022-10-12T00:28:14.357Z,12.87
2022-10-12T00:29:14.561Z,12.80
2022-10-12T00:30:12.815Z,12.75
2022-10-12T00:31:15.046Z,12.78
2022-10-12T00:32:16.728Z,12.87
2022-10-12T00:33:13.737Z,12.79
2022-10-12T00:34:14.041Z,12.79
2022-10-12T00:35:16.226Z,12.79
2022-10-12T00:36:16.409Z,12.79
2022-10-12T00:37:17.379Z,12.72
2022-10-12T00:38:17.130Z,12.73
2022-10-12T00:39:15.489Z,12.64
2022-10-12T00:40:17.570Z,12.70
2022-10-12T00:41:17.757Z,12.73
2022-10-12T00:42:18.930Z,12.75
2022-10-12T00:43:18.137Z,12.67
2022-10-12T00:44:20.320Z,12.70
2022-10-12T00:45:19.178Z,12.73
2022-10-12T00:46:17.559Z,12.65
2022-10-12T00:47:20.808Z,12.62
2022-10-12T00:48:18.211Z,12.64
2022-10-12T00:49:21.898Z,12.73
2022-10-12T00:50:20.602Z,12.73
2022-10-12T00:51:21.154Z,12.61
2022-10-12T00:52:20.393Z,12.64
2022-10-12T00:53:19.746Z,12.62
2022-10-12T00:54:20.047Z,12.57
2022-10-12T00:55:21.742Z,12.62
2022-10-12T00:56:22.477Z,12.58
2022-10-12T00:57:23.626Z,12.62
2022-10-12T00:58:22.910Z,12.57
2022-10-12T00:59:23.042Z,12.54
2022-10-12T01:00:24.741Z,12.55
2022-10-12T01:01:23.970Z,12.54
2022-10-12T01:02:25.084Z,12.55
2022-10-12T01:03:24.318Z,12.58
2022-10-12T01:04:24.629Z,12.64
2022-10-12T01:05:25.221Z,12.64
2022-10-12T01:06:25.414Z,12.61
2022-10-12T01:07:26.543Z,12.62
2022-10-12T01:08:25.789Z,12.55
2022-10-12T01:09:25.978Z,12.61
2022-10-12T01:10:26.218Z,12.57
2022-10-12T01:11:26.850Z,12.55
2022-10-12T01:12:28.090Z,12.55
2022-10-12T01:13:27.332Z,12.54
2022-10-12T01:14:25.604Z,12.54
2022-10-12T01:15:25.899Z,12.50
2022-10-12T01:16:28.092Z,12.39
2022-10-12T01:17:26.964Z,12.36
2022-10-12T01:18:28.672Z,12.39
2022-10-12T01:19:28.864Z,12.32
2022-10-12T01:20:29.061Z,12.35
2022-10-12T01:21:30.960Z,12.42
2022-10-12T01:22:29.552Z,12.46
2022-10-12T01:23:29.825Z,12.42
2022-10-12T01:24:30.386Z,12.37
2022-10-12T01:25:28.753Z,12.40
2022-10-12T01:26:30.945Z,12.35
2022-10-12T01:27:32.145Z,12.29
2022-10-12T01:28:31.457Z,12.29
2022-10-12T01:29:31.577Z,12.32
2022-10-12T01:30:31.757Z,12.35
2022-10-12T01:31:32.876Z,12.27
2022-10-12T01:32:35.116Z,12.25
2022-10-12T01:33:31.243Z,12.27
2022-10-12T01:34:33.230Z,12.27
2022-10-12T01:35:33.575Z,12.27
2022-10-12T01:36:31.842Z,12.29
2022-10-12T01:37:34.608Z,12.31
2022-10-12T01:38:32.392Z,12.35
2022-10-12T01:39:32.913Z,12.39
2022-10-12T01:40:34.879Z,12.39
2022-10-12T01:41:34.208Z,12.36
2022-10-12T01:42:36.920Z,12.29
2022-10-12T01:43:33.818Z,12.35
2022-10-12T01:44:34.117Z,12.39
2022-10-12T01:45:34.423Z,12.36
2022-10-12T01:46:36.623Z,12.32
2022-10-12T01:47:38.138Z,12.39
2022-10-12T01:48:35.326Z,12.45
2022-10-12T01:49:37.524Z,12.47
2022-10-12T01:50:35.903Z,12.53
2022-10-12T01:51:38.085Z,12.70
2022-10-12T01:52:39.778Z,12.73
2022-10-12T01:53:36.845Z,12.75
2022-10-12T01:54:39.038Z,12.70
2022-10-12T01:55:39.199Z,12.65
2022-10-12T01:56:37.703Z,12.53
2022-10-12T01:57:39.368Z,12.57
2022-10-12T01:58:38.266Z,12.70
2022-10-12T01:59:41.408Z,12.72
2022-10-12T02:00:38.873Z,12.68
2022-10-12T02:01:41.930Z,12.76
2022-10-12T02:02:42.672Z,12.75
2022-10-12T02:03:39.567Z,12.64
2022-10-12T02:04:42.715Z,12.65
2022-10-12T02:05:40.127Z,12.72
2022-10-12T02:06:41.316Z,12.50
2022-10-12T02:07:41.699Z,12.60
2022-10-12T02:08:40.929Z,12.60
2022-10-12T02:09:42.052Z,12.68
2022-10-12T02:10:41.538Z,12.55
2022-10-12T02:11:41.832Z,12.67
2022-10-12T02:12:44.099Z,12.73
2022-10-12T02:13:44.512Z,12.73
2022-10-12T02:14:42.772Z,12.72
2022-10-12T02:15:43.080Z,12.76
2022-10-12T02:16:43.403Z,12.68
2022-10-12T02:17:45.645Z,12.68
2022-10-12T02:18:44.020Z,12.64
2022-10-12T02:19:44.314Z,12.55
2022-10-12T02:20:44.624Z,12.58
2022-10-12T02:21:44.914Z,12.67
2022-10-12T02:22:48.077Z,12.75
2022-10-12T02:23:45.464Z,12.85
2022-10-12T02:24:45.757Z,12.95
2022-10-12T02:25:47.941Z,12.76
2022-10-12T02:26:46.323Z,12.78
2022-10-12T02:27:50.005Z,12.93
2022-10-12T02:28:48.775Z,12.98
2022-10-12T02:29:47.136Z,12.90
2022-10-12T02:30:47.441Z,13.00
2022-10-12T02:31:49.607Z,12.98
2022-10-12T02:32:51.326Z,12.94
2022-10-12T02:33:48.224Z,12.90
2022-10-12T02:34:48.521Z,12.93
2022-10-12T02:35:48.815Z,12.98
2022-10-12T02:36:49.988Z,12.98
2022-10-12T02:37:50.373Z,12.97
2022-10-12T02:38:51.551Z,13.00
2022-10-12T02:39:49.922Z,12.95
2022-10-12T02:40:50.229Z,12.97
2022-10-12T02:41:50.523Z,12.98
2022-10-12T02:43:11.092Z,13.03
2022-10-12T02:43:53.802Z,13.05
2022-10-12T02:44:51.436Z,13.12
2022-10-12T02:45:51.723Z,13.15
2022-10-12T02:46:52.019Z,13.09
2022-10-12T02:47:55.192Z,13.01
2022-10-12T02:48:54.516Z,13.05
2022-10-12T02:49:52.888Z,13.00
2022-10-12T02:50:53.183Z,12.91
2022-10-12T02:51:53.474Z,12.90
2022-10-12T02:52:57.166Z,12.87
2022-10-12T02:53:55.885Z,12.91
2022-10-12T02:54:54.395Z,12.83
2022-10-12T02:55:56.591Z,12.83
2022-10-12T02:56:56.765Z,12.91
2022-10-12T02:57:57.919Z,12.91
2022-10-12T02:58:57.153Z,12.83
2022-10-12T02:59:57.833Z,12.80
2022-10-12T03:00:58.117Z,12.75
2022-10-12T03:01:58.229Z,12.68
2022-10-12T03:02:57.713Z,12.64
2022-10-12T03:03:58.981Z,12.70
2022-10-12T03:04:59.138Z,12.70
2022-10-12T03:05:59.326Z,12.79
2022-10-12T03:06:57.962Z,12.78
2022-10-12T03:08:00.131Z,12.62
2022-10-12T03:09:00.316Z,12.68
2022-10-12T03:09:58.809Z,12.72
2022-10-12T03:10:59.110Z,12.67
2022-10-12T03:11:59.400Z,12.60
2022-10-12T03:13:01.560Z,12.62
2022-10-12T03:14:01.743Z,12.64
2022-10-12T03:15:01.926Z,12.62
2022-10-12T03:16:00.551Z,12.57
2022-10-12T03:17:00.849Z,12.65
2022-10-12T03:18:01.163Z,12.57
2022-10-12T03:19:03.331Z,12.58
2022-10-12T03:20:03.518Z,12.50
2022-10-12T03:21:02.011Z,12.40
2022-10-12T03:22:02.337Z,12.47
2022-10-12T03:23:02.638Z,12.45
2022-10-12T03:24:02.934Z,12.43
2022-10-12T03:25:05.196Z,12.46
2022-10-12T03:26:05.377Z,12.50
2022-10-12T03:27:05.568Z,12.50
2022-10-12T03:28:06.702Z,12.43
2022-10-12T03:29:06.442Z,12.47
2022-10-12T03:30:06.621Z,12.49
2022-10-12T03:31:05.019Z,12.46
2022-10-12T03:32:07.208Z,12.40
2022-10-12T03:33:08.943Z,12.40
2022-10-12T03:34:05.838Z,12.39
2022-10-12T03:35:08.021Z,12.32
2022-10-12T03:36:08.229Z,12.40
2022-10-12T03:37:08.420Z,12.32
2022-10-12T03:38:08.050Z,12.36
2022-10-12T03:39:09.250Z,12.31
2022-10-12T03:40:09.425Z,12.35
2022-10-12T03:41:07.943Z,12.36
2022-10-12T03:42:08.233Z,12.29
2022-10-12T03:43:10.480Z,12.27
2022-10-12T03:44:08.859Z,12.28
2022-10-12T03:45:09.175Z,12.27
2022-10-12T03:46:11.369Z,12.21
2022-10-12T03:47:09.742Z,12.18
2022-10-12T03:48:11.015Z,12.18
2022-10-12T03:49:10.385Z,12.20
2022-10-12T03:50:10.676Z,12.17
2022-10-12T03:51:12.864Z,12.10
2022-10-12T03:52:11.233Z,12.02
2022-10-12T03:53:12.361Z,12.06
2022-10-12T03:54:11.976Z,12.02
2022-10-12T03:55:12.106Z,12.00
2022-10-12T03:56:14.285Z,12.03
2022-10-12T03:57:12.654Z,11.99
2022-10-12T03:58:13.938Z,11.99
2022-10-12T03:59:13.297Z,11.97
2022-10-12T04:00:16.429Z,11.97
2022-10-12T04:01:16.639Z,11.94
2022-10-12T04:02:16.920Z,11.88
2022-10-12T04:03:15.457Z,11.86
2022-10-12T04:04:14.679Z,11.86
2022-10-12T04:05:17.869Z,11.81
2022-10-12T04:06:17.129Z,11.81
2022-10-12T04:07:15.497Z,11.84
2022-10-12T04:08:17.687Z,11.75
2022-10-12T04:09:16.059Z,11.77
2022-10-12T04:10:19.238Z,11.78
2022-10-12T04:11:16.620Z,11.77
2022-10-12T04:12:18.817Z,11.80
2022-10-12T04:13:17.271Z,11.77
2022-10-12T04:14:17.450Z,11.65
2022-10-12T04:15:18.753Z,11.69
2022-10-12T04:16:18.095Z,11.60
2022-10-12T04:17:20.276Z,11.68
2022-10-12T04:18:18.651Z,11.68
2022-10-12T04:19:19.120Z,11.60
2022-10-12T04:20:20.250Z,11.57
2022-10-12T04:21:19.473Z,11.62
2022-10-12T04:22:21.662Z,11.62
2022-10-12T04:23:20.031Z,11.63
2022-10-12T04:24:20.427Z,11.60
2022-10-12T04:25:22.832Z,11.59
2022-10-12T04:26:20.879Z,11.55
2022-10-12T04:27:23.062Z,11.50
2022-10-12T04:28:23.284Z,11.55
2022-10-12T04:29:21.746Z,11.55
2022-10-12T04:30:25.409Z,11.57
2022-10-12T04:31:23.262Z,11.62
2022-10-12T04:32:22.612Z,11.57
2022-10-12T04:33:24.791Z,11.54
2022-10-12T04:34:23.169Z,11.55
2022-10-12T04:35:23.464Z,11.59
2022-10-12T04:36:25.624Z,11.57
2022-10-12T04:37:24.012Z,11.52
2022-10-12T04:38:26.200Z,11.54
2022-10-12T04:39:24.568Z,11.55
2022-10-12T04:40:24.867Z,11.57
2022-10-12T04:41:26.179Z,11.62
2022-10-12T04:42:27.321Z,11.63
2022-10-12T04:43:27.505Z,11.57
2022-10-12T04:44:31.151Z,11.55
2022-10-12T04:45:30.232Z,11.55
2022-10-12T04:46:28.395Z,11.47
2022-10-12T04:47:28.578Z,11.48
2022-10-12T04:48:28.755Z,11.52
2022-10-12T04:49:29.439Z,11.44
2022-10-12T04:50:30.259Z,11.45
2022-10-12T04:51:29.803Z,11.48
2022-10-12T04:52:31.014Z,11.45
2022-10-12T04:53:30.191Z,11.44
2022-10-12T04:54:30.384Z,11.44
2022-10-12T04:55:31.160Z,11.41
2022-10-12T04:56:29.424Z,11.43
2022-10-12T04:57:29.775Z,11.45
2022-10-12T04:58:31.985Z,11.40
2022-10-12T04:59:33.561Z,11.33
2022-10-12T05:00:30.647Z,11.26
2022-10-12T05:01:31.891Z,11.19
2022-10-12T05:02:33.023Z,11.23
2022-10-12T05:03:39.505Z,11.17
2022-10-12T05:05:31.900Z,11.08
2022-10-12T05:06:34.066Z,11.11
2022-10-12T05:07:34.243Z,11.11
2022-10-12T05:08:34.443Z,11.05
2022-10-12T05:09:35.607Z,11.02
2022-10-12T05:10:36.798Z,10.99
2022-10-12T05:11:35.612Z,11.00
2022-10-12T05:12:35.947Z,11.02
2022-10-12T05:13:35.912Z,10.96
2022-10-12T05:14:37.093Z,10.97
2022-10-12T05:15:36.823Z,10.97
2022-10-12T05:16:37.278Z,10.89
2022-10-12T05:17:37.423Z,10.93
2022-10-12T05:18:37.438Z,10.87
2022-10-12T05:19:38.607Z,10.87
2022-10-12T05:20:37.824Z,10.87
2022-10-12T05:21:39.486Z,10.89
2022-10-12T05:22:38.675Z,10.87
2022-10-12T05:23:38.913Z,10.82
2022-10-12T05:24:40.009Z,10.81
2022-10-12T05:25:41.724Z,10.78
2022-10-12T05:26:37.889Z,10.72
2022-10-12T05:27:38.422Z,10.75
2022-10-12T05:28:41.360Z,10.75
2022-10-12T05:29:39.818Z,10.71
2022-10-12T05:30:41.113Z,10.68
2022-10-12T05:31:39.369Z,10.68
2022-10-12T05:32:41.810Z,10.59
2022-10-12T05:33:41.803Z,10.54
2022-10-12T05:34:43.622Z,10.53
2022-10-12T05:35:45.265Z,10.46
2022-10-12T05:36:42.662Z,10.41
2022-10-12T05:37:43.125Z,10.40
2022-10-12T05:38:44.317Z,10.42
2022-10-12T05:39:42.886Z,10.49
2022-10-12T05:40:44.072Z,10.40
2022-10-12T05:41:44.269Z,10.33
2022-10-12T05:42:44.465Z,10.30
2022-10-12T05:43:44.646Z,10.30
2022-10-12T05:44:46.889Z,10.22
2022-10-12T05:45:45.631Z,10.25
2022-10-12T05:46:44.032Z,10.17
2022-10-12T05:47:47.673Z,10.23
2022-10-12T05:48:46.421Z,10.19
2022-10-12T05:49:44.848Z,10.17
2022-10-12T05:50:45.189Z,10.13
2022-10-12T05:51:47.375Z,10.10
2022-10-12T05:52:46.079Z,10.15
2022-10-12T05:53:46.206Z,10.12
2022-10-12T05:54:48.399Z,10.12
2022-10-12T05:55:46.657Z,10.12
2022-10-12T05:56:46.958Z,10.12
2022-10-12T05:57:52.010Z,10.12
2022-10-12T05:58:47.632Z,10.07
2022-10-12T05:59:50.814Z,10.15
2022-10-12T06:00:48.262Z,10.12
2022-10-12T06:01:48.555Z,10.13
2022-10-12T06:02:48.724Z,10.10
2022-10-12T06:03:50.909Z,10.15
2022-10-12T06:04:50.222Z,10.13
2022-10-12T06:05:50.564Z,10.17
2022-10-12T06:06:51.804Z,10.17
2022-10-12T06:07:50.202Z,10.17
2022-10-12T06:08:52.389Z,10.16
2022-10-12T06:09:52.665Z,10.23
2022-10-12T06:10:51.086Z,10.26
2022-10-12T06:11:51.439Z,10.23
2022-10-12T06:12:53.725Z,10.22
2022-10-12T06:13:51.906Z,10.30
2022-10-12T06:14:55.605Z,10.25
2022-10-12T06:15:52.532Z,10.28
2022-10-12T06:16:54.520Z,10.26
2022-10-12T06:17:53.219Z,10.26
2022-10-12T06:18:55.413Z,10.31
2022-10-12T06:19:55.566Z,10.30
2022-10-12T06:21:21.005Z,10.30
2022-10-12T06:21:55.450Z,10.30
2022-10-12T06:22:54.727Z,10.31
2022-10-12T06:23:55.061Z,10.31
2022-10-12T06:24:56.236Z,10.37
2022-10-12T06:25:55.627Z,10.30
2022-10-12T06:26:55.969Z,10.28
2022-10-12T06:27:56.303Z,10.30
2022-10-12T06:28:56.564Z,10.34
2022-10-12T06:29:57.031Z,10.31
2022-10-12T06:30:59.107Z,10.37
2022-10-12T06:32:00.728Z,10.38
2022-10-12T06:32:57.666Z,10.31
2022-10-12T06:33:58.004Z,10.34
2022-10-12T06:35:01.666Z,10.37
2022-10-12T06:36:00.394Z,10.42
2022-10-12T06:37:01.852Z,10.42
2022-10-12T06:37:59.300Z,10.42
2022-10-12T06:38:59.568Z,10.54
2022-10-12T06:40:03.248Z,10.56
2022-10-12T06:41:01.977Z,10.57
2022-10-12T06:42:02.133Z,10.59
2022-10-12T06:43:00.670Z,10.54
2022-10-12T06:44:01.001Z,10.56
2022-10-12T06:45:03.269Z,10.56
2022-10-12T06:46:03.381Z,10.60
2022-10-12T06:47:01.935Z,10.56
2022-10-12T06:48:04.095Z,10.60
2022-10-12T06:49:04.459Z,10.56
2022-10-12T06:50:04.518Z,10.68
2022-10-12T06:51:04.693Z,10.64
2022-10-12T06:52:04.907Z,10.71
2022-10-12T06:53:04.572Z,10.67
2022-10-12T06:54:05.730Z,10.67
2022-10-12T06:55:06.150Z,10.61
2022-10-12T06:56:04.453Z,10.64
2022-10-12T06:57:06.637Z,10.74
2022-10-12T06:58:05.131Z,10.69
2022-10-12T06:59:05.345Z,10.64
2022-10-12T07:00:08.571Z,10.74
2022-10-12T07:01:05.990Z,10.79
2022-10-12T07:02:08.167Z,10.79
2022-10-12T07:03:06.457Z,10.82
2022-10-12T07:04:06.789Z,10.87
2022-10-12T07:05:09.953Z,10.89
2022-10-12T07:06:09.186Z,10.89
2022-10-12T07:07:09.366Z,11.05
2022-10-12T07:08:09.545Z,11.44
2022-10-12T07:09:10.310Z,11.69
2022-10-12T07:10:11.402Z,11.91
2022-10-12T07:11:10.787Z,12.22
2022-10-12T07:12:10.829Z,12.32
2022-10-12T07:13:11.021Z,12.50
2022-10-12T07:14:11.192Z,12.67
2022-10-12T07:15:11.004Z,12.85
2022-10-12T07:16:12.353Z,12.97
2022-10-12T07:17:12.439Z,12.97
2022-10-12T07:18:10.846Z,13.05
2022-10-12T07:19:13.061Z,13.16
2022-10-12T07:20:14.232Z,13.35
2022-10-12T07:21:14.436Z,13.41
2022-10-12T07:22:14.126Z,13.46
2022-10-12T07:23:12.413Z,13.37
2022-10-12T07:24:14.600Z,13.56
2022-10-12T07:25:16.275Z,13.75
2022-10-12T07:26:14.207Z,14.08
2022-10-12T07:27:15.403Z,14.20
2022-10-12T07:28:17.118Z,14.40
2022-10-12T07:29:15.783Z,14.32
2022-10-12T07:30:16.956Z,14.43
2022-10-12T07:31:15.702Z,14.15
2022-10-12T07:32:14.969Z,14.35
2022-10-12T07:33:16.333Z,14.37
2022-10-12T07:34:17.504Z,14.33
2022-10-12T07:35:16.644Z,14.35
2022-10-12T07:36:21.364Z,14.50
2022-10-12T07:37:17.503Z,14.73
2022-10-12T07:38:17.246Z,14.70
2022-10-12T07:39:17.024Z,14.58
2022-10-12T07:40:19.268Z,14.66
2022-10-12T07:41:18.757Z,14.66
2022-10-12T07:42:19.829Z,15.10
2022-10-12T07:43:18.216Z,15.09
2022-10-12T07:44:18.552Z,15.00
2022-10-12T07:45:19.856Z,14.84
2022-10-12T07:46:19.127Z,14.88
2022-10-12T07:47:21.310Z,15.14
2022-10-12T07:48:19.732Z,15.44
2022-10-12T07:49:20.080Z,15.75
2022-10-12T07:50:22.329Z,16.00
2022-10-12T07:51:23.157Z,15.94
2022-10-12T07:52:22.884Z,16.13
2022-10-12T07:53:21.295Z,16.04
2022-10-12T07:54:28.212Z,15.92
2022-10-12T07:55:24.850Z,16.24
2022-10-12T07:56:22.145Z,15.82
2022-10-12T07:57:24.328Z,15.43
2022-10-12T07:58:22.749Z,15.35
2022-10-12T07:59:23.065Z,15.57
2022-10-12T08:00:25.244Z,15.80
2022-10-12T08:01:24.676Z,15.70
2022-10-12T08:02:23.909Z,15.88
2022-10-12T08:03:24.257Z,16.41
2022-10-12T08:04:24.616Z,16.57
2022-10-12T08:05:26.798Z,16.79
2022-10-12T08:06:25.959Z,16.65
2022-10-12T08:07:25.360Z,16.26
2022-10-12T08:08:25.706Z,16.12
2022-10-12T08:09:26.039Z,15.77
2022-10-12T08:10:28.237Z,15.91
2022-10-12T08:11:28.840Z,16.12
2022-10-12T08:12:26.879Z,16.28
2022-10-12T08:13:27.227Z,16.23
2022-10-12T08:14:27.444Z,16.13
2022-10-12T08:15:29.651Z,16.31
2022-10-12T08:16:29.843Z,16.38
2022-10-12T08:17:29.261Z,16.81
2022-10-12T08:18:28.544Z,16.76
2022-10-12T08:19:32.991Z,16.58
2022-10-12T08:20:30.106Z,17.06
2022-10-12T08:21:31.277Z,17.45
2022-10-12T08:22:29.735Z,17.08
2022-10-12T08:23:29.944Z,16.61
2022-10-12T08:24:30.182Z,17.04
2022-10-12T08:25:32.340Z,17.39
2022-10-12T08:26:32.530Z,17.51
2022-10-12T08:27:30.954Z,17.94
2022-10-12T08:28:33.204Z,18.18
2022-10-12T08:29:34.792Z,18.03
2022-10-12T08:30:33.494Z,18.20
2022-10-12T08:31:35.191Z,18.56
2022-10-12T08:32:34.412Z,19.07
2022-10-12T08:33:33.606Z,18.98
2022-10-12T08:34:35.047Z,18.50
2022-10-12T08:35:35.149Z,18.05
2022-10-12T08:36:35.347Z,18.16
2022-10-12T08:37:35.523Z,17.67
2022-10-12T08:38:34.189Z,17.38
2022-10-12T08:39:35.333Z,17.51
2022-10-12T08:40:34.752Z,17.71
2022-10-12T08:41:36.934Z,17.82
2022-10-12T08:42:35.232Z,17.70
2022-10-12T08:43:35.564Z,17.74
2022-10-12T08:44:39.127Z,18.08
2022-10-12T08:45:37.863Z,18.13
2022-10-12T08:46:38.060Z,17.64
2022-10-12T08:47:39.051Z,16.90
2022-10-12T08:48:38.935Z,16.35
2022-10-12T08:49:39.208Z,15.82
2022-10-12T08:50:37.653Z,15.49
2022-10-12T08:51:42.118Z,15.31
2022-10-12T08:52:40.365Z,15.04
2022-10-12T08:53:40.258Z,15.11
2022-10-12T08:54:41.389Z,15.19
2022-10-12T08:55:40.607Z,15.25
2022-10-12T08:56:41.340Z,15.11
2022-10-12T08:57:42.772Z,15.10
2022-10-12T08:58:41.830Z,15.07
2022-10-12T08:59:41.972Z,15.14
2022-10-12T09:00:42.149Z,15.33
2022-10-12T09:01:42.640Z,15.33
2022-10-12T09:02:42.519Z,15.33
2022-10-12T09:03:42.701Z,15.27
2022-10-12T09:04:42.522Z,15.28
2022-10-12T09:05:43.586Z,15.37
2022-10-12T09:06:43.790Z,15.03
2022-10-12T09:07:44.936Z,14.94
2022-10-12T09:08:44.688Z,15.09
2022-10-12T09:09:45.799Z,14.99
2022-10-12T09:10:45.042Z,15.21
2022-10-12T09:11:45.203Z,15.07
2022-10-12T09:12:45.379Z,15.06
2022-10-12T09:13:45.827Z,15.28
2022-10-12T09:14:47.224Z,15.27
2022-10-12T09:15:44.652Z,15.09
2022-10-12T09:16:46.816Z,15.27
2022-10-12T09:17:46.971Z,15.25
2022-10-12T09:18:47.183Z,15.17
2022-10-12T09:19:48.832Z,15.29
2022-10-12T09:20:48.079Z,15.14
2022-10-12T09:21:48.278Z,14.97
2022-10-12T09:22:48.463Z,15.02
2022-10-12T09:23:49.638Z,14.92
2022-10-12T09:24:49.462Z,14.88
2022-10-12T09:25:48.632Z,15.00
2022-10-12T09:26:49.802Z,15.10
2022-10-12T09:27:49.993Z,15.21
2022-10-12T09:28:48.595Z,15.18
2022-10-12T09:29:51.705Z,14.99
2022-10-12T09:30:49.022Z,15.25
2022-10-12T09:31:51.210Z,15.31
2022-10-12T09:32:51.405Z,15.37
2022-10-12T09:33:51.595Z,15.39
2022-10-12T09:34:51.788Z,15.31
2022-10-12T09:35:51.963Z,15.29
2022-10-12T09:36:50.757Z,15.36
2022-10-12T09:37:52.913Z,15.44
2022-10-12T09:38:53.082Z,15.35
2022-10-12T09:39:53.433Z,15.39
2022-10-12T09:40:51.727Z,15.55
2022-10-12T09:41:53.905Z,15.73
2022-10-12T09:42:52.334Z,15.90
2022-10-12T09:43:54.485Z,16.43
2022-10-12T09:44:54.668Z,17.05
2022-10-12T09:45:53.084Z,17.83
2022-10-12T09:46:53.323Z,17.90
2022-10-12T09:47:53.545Z,17.79
2022-10-12T09:48:55.719Z,18.10
2022-10-12T09:49:55.905Z,18.45
2022-10-12T09:50:54.449Z,18.56
2022-10-12T09:51:54.679Z,18.10
2022-10-12T09:52:54.900Z,18.22
2022-10-12T09:53:57.911Z,18.78
2022-10-12T09:54:57.270Z,18.66
2022-10-12T09:55:55.690Z,18.44
2022-10-12T09:56:56.172Z,18.73
2022-10-12T09:57:59.237Z,18.56
2022-10-12T09:58:56.668Z,18.29
2022-10-12T09:59:56.896Z,18.26
2022-10-12T10:00:59.091Z,18.04
2022-10-12T10:01:57.538Z,17.64
2022-10-12T10:02:58.762Z,17.52
2022-10-12T10:04:00.017Z,17.45
2022-10-12T10:04:59.172Z,16.68
2022-10-12T10:06:00.508Z,16.78
2022-10-12T10:06:59.755Z,17.06
2022-10-12T10:08:00.016Z,16.78
2022-10-12T10:09:01.383Z,16.38
2022-10-12T10:10:01.523Z,16.42
2022-10-12T10:11:01.710Z,16.20
2022-10-12T10:12:00.137Z,16.09
2022-10-12T10:13:01.407Z,16.17
2022-10-12T10:14:00.713Z,16.35
2022-10-12T10:15:00.935Z,16.47
2022-10-12T10:16:03.116Z,16.43
2022-10-12T10:17:01.426Z,16.60
2022-10-12T10:18:02.634Z,16.75
2022-10-12T10:19:01.936Z,16.72
2022-10-12T10:20:04.128Z,16.51
2022-10-12T10:21:02.435Z,16.61
2022-10-12T10:22:02.667Z,16.76
2022-10-12T10:23:06.354Z,16.75
2022-10-12T10:24:03.152Z,16.58
2022-10-12T10:25:03.504Z,16.78
2022-10-12T10:26:03.799Z,16.69
2022-10-12T10:27:04.017Z,16.56
2022-10-12T10:28:07.676Z,16.47
2022-10-12T10:29:04.504Z,16.49
2022-10-12T10:30:18.093Z,16.54
2022-10-12T10:31:05.982Z,16.84
2022-10-12T10:32:05.255Z,17.24
2022-10-12T10:33:07.621Z,17.29
2022-10-12T10:34:05.910Z,17.24
2022-10-12T10:35:06.269Z,17.29
2022-10-12T10:36:06.515Z,16.96
2022-10-12T10:37:08.704Z,16.83
2022-10-12T10:38:10.354Z,16.91
2022-10-12T10:39:09.049Z,17.01
2022-10-12T10:40:08.612Z,16.93
2022-10-12T10:41:09.770Z,16.87
2022-10-12T10:42:08.188Z,17.06
2022-10-12T10:43:08.529Z,17.48
2022-10-12T10:44:08.757Z,18.07
2022-10-12T10:45:10.948Z,18.56
2022-10-12T10:46:09.239Z,19.08
2022-10-12T10:47:12.899Z,19.24
2022-10-12T10:48:09.863Z,19.55
2022-10-12T10:49:10.194Z,19.99
2022-10-12T10:50:10.456Z,20.19
2022-10-12T10:51:12.634Z,20.70
2022-10-12T10:52:10.964Z,20.69
2022-10-12T10:53:13.151Z,20.34
2022-10-12T10:54:13.335Z,19.22
2022-10-12T10:55:13.520Z,18.26
2022-10-12T10:56:13.699Z,17.85
2022-10-12T10:57:13.892Z,17.45
2022-10-12T10:58:14.559Z,17.29
2022-10-12T10:59:14.716Z,17.23
2022-10-12T11:00:39.679Z,17.16
2022-10-12T11:01:14.675Z,17.26
2022-10-12T11:02:15.810Z,16.93
2022-10-12T11:03:16.021Z,17.19
2022-10-12T11:04:16.455Z,17.16
2022-10-12T11:05:17.037Z,17.19
2022-10-12T11:06:17.044Z,17.16
2022-10-12T11:07:17.205Z,17.27
2022-10-12T11:08:17.365Z,17.14
2022-10-12T11:09:16.076Z,17.14
2022-10-12T11:10:19.688Z,17.27
2022-10-12T11:11:18.457Z,17.12
2022-10-12T11:12:16.876Z,17.44
2022-10-12T11:13:17.104Z,17.80
2022-10-12T11:14:19.298Z,18.20
2022-10-12T11:15:20.930Z,18.56
2022-10-12T11:16:19.654Z,18.80
2022-10-12T11:17:18.203Z,18.68
2022-10-12T11:18:18.425Z,18.71
2022-10-12T11:19:18.663Z,19.76
2022-10-12T11:20:20.829Z,20.00
2022-10-12T11:21:21.031Z,20.09
2022-10-12T11:22:21.213Z,20.31
2022-10-12T11:23:21.372Z,20.63
2022-10-12T11:24:21.551Z,21.18
2022-10-12T11:25:23.744Z,21.21
2022-10-12T11:26:22.453Z,20.78
2022-10-12T11:27:22.638Z,19.31
2022-10-12T11:28:22.852Z,17.78
2022-10-12T11:29:23.029Z,17.86
2022-10-12T11:30:23.784Z,18.37
2022-10-12T11:31:24.707Z,18.62
2022-10-12T11:32:24.071Z,18.66
2022-10-12T11:33:24.274Z,19.14
2022-10-12T11:34:24.955Z,19.49
2022-10-12T11:35:26.166Z,20.02
2022-10-12T11:36:23.642Z,19.51
2022-10-12T11:37:23.872Z,19.02
2022-10-12T11:38:26.057Z,18.90
2022-10-12T11:39:26.252Z,18.96
2022-10-12T11:40:47.649Z,18.60
2022-10-12T11:41:52.475Z,18.35
2022-10-12T11:42:26.285Z,18.73
2022-10-12T11:43:27.390Z,18.50
2022-10-12T11:44:30.307Z,19.11
2022-10-12T11:45:26.948Z,19.69
2022-10-12T11:46:26.367Z,19.88
2022-10-12T11:47:28.560Z,19.82
2022-10-12T11:48:27.376Z,20.07
2022-10-12T11:49:30.494Z,20.58
2022-10-12T11:50:30.687Z,20.87
2022-10-12T11:51:27.777Z,21.30
2022-10-12T11:52:29.217Z,21.62
2022-10-12T11:53:28.336Z,22.17
2022-10-12T11:54:28.579Z,21.79
2022-10-12T11:55:31.735Z,21.18
2022-10-12T11:56:30.959Z,20.90
2022-10-12T11:57:29.388Z,20.63
2022-10-12T11:58:48.883Z,20.10
2022-10-12T11:59:32.805Z,20.41
2022-10-12T12:00:33.465Z,20.47
2022-10-12T12:01:30.424Z,20.29
2022-10-12T12:02:32.609Z,19.91
2022-10-12T12:03:30.955Z,18.83
2022-10-12T12:04:46.609Z,18.47
2022-10-12T12:05:33.476Z,18.01
2022-10-12T12:06:31.784Z,18.53
2022-10-12T12:07:32.011Z,19.19
2022-10-12T12:08:34.195Z,19.39
2022-10-12T12:09:32.844Z,19.36
2022-10-12T12:10:33.955Z,20.14
2022-10-12T12:11:34.182Z,20.26
2022-10-12T12:12:35.414Z,20.00
2022-10-12T12:13:33.722Z,20.07
2022-10-12T12:14:34.070Z,18.88
2022-10-12T12:15:35.333Z,18.75
2022-10-12T12:16:36.516Z,19.36
2022-10-12T12:17:35.941Z,19.71
2022-10-12T12:18:35.231Z,20.29
2022-10-12T12:19:35.638Z,20.67
2022-10-12T12:20:35.825Z,20.80
2022-10-12T12:21:38.991Z,20.84
2022-10-12T12:22:37.290Z,20.82
2022-10-12T12:23:36.576Z,20.99
2022-10-12T12:24:39.034Z,20.62
2022-10-12T12:25:37.086Z,19.95
2022-10-12T12:26:39.302Z,20.60
2022-10-12T12:27:40.483Z,21.40
2022-10-12T12:28:38.006Z,21.66
2022-10-12T12:29:38.215Z,21.20
2022-10-12T12:30:38.437Z,20.03
2022-10-12T12:31:38.926Z,19.94
2022-10-12T12:32:39.844Z,18.73
2022-10-12T12:33:41.235Z,18.07
2022-10-12T12:34:39.560Z,18.37
2022-10-12T12:35:39.747Z,18.90
2022-10-12T12:36:40.129Z,19.45
2022-10-12T12:37:43.303Z,20.09
2022-10-12T12:38:40.615Z,20.29
2022-10-12T12:39:40.950Z,20.25
2022-10-12T12:40:41.190Z,19.94
2022-10-12T12:41:41.427Z,19.40
2022-10-12T12:42:44.693Z,19.19
2022-10-12T12:43:43.925Z,19.34
2022-10-12T12:44:44.105Z,20.22
2022-10-12T12:45:44.290Z,20.25
2022-10-12T12:46:42.975Z,20.19
2022-10-12T12:47:45.910Z,20.13
2022-10-12T12:48:45.392Z,20.52
2022-10-12T12:50:59.727Z,20.60
2022-10-12T12:52:02.912Z,20.58
2022-10-12T12:53:03.101Z,20.14
2022-10-12T12:54:03.255Z,20.22
2022-10-12T12:55:00.811Z,20.26
2022-10-12T12:56:01.038Z,19.92
2022-10-12T12:57:01.272Z,19.30
2022-10-12T12:58:04.446Z,18.23